Time;durP1;ratioP1;P1;durP2;ratioP2;P2;SDS_P1;SDS_P2;PMS_P1;PMS_P2;Temp;Humidity;BMP_temperature;BMP_pressure;BME280_temperature;BME280_humidity;BME280_pressure;Samples;Min_cycle;Max_cycle;Signal;HPM_P1;HPM_P2
2023/10/15 00:02:06;;;;;;;3.47;1.77;;;8.40;99.90;;;;;;5058427;28;20494;-76
2023/10/15 00:04:33;;;;;;;3.20;0.75;;;8.40;99.90;;;;;;5074994;28;20410;-76
2023/10/15 00:06:59;;;;;;;3.85;0.73;;;8.50;99.90;;;;;;5044882;28;20049;-76
2023/10/15 00:09:25;;;;;;;4.53;1.42;;;8.50;99.90;;;;;;5042554;28;20754;-76
2023/10/15 00:11:51;;;;;;;4.45;0.55;;;8.50;99.90;;;;;;5057279;28;20503;-76
2023/10/15 00:14:16;;;;;;;1.13;1.00;;;8.50;99.90;;;;;;5061998;28;20546;-76
2023/10/15 00:16:42;;;;;;;1.85;1.17;;;8.50;99.90;;;;;;5061832;28;20044;-76
2023/10/15 00:19:10;;;;;;;1.48;0.70;;;8.60;99.90;;;;;;5052332;28;20436;-76
2023/10/15 00:21:37;;;;;;;0.40;0.40;;;8.60;99.90;;;;;;5041896;28;20426;-76
2023/10/15 00:24:05;;;;;;;2.40;1.02;;;8.60;99.90;;;;;;5042252;28;20459;-76
2023/10/15 00:26:31;;;;;;;5.15;0.55;;;8.60;99.90;;;;;;5041306;28;20041;-76
2023/10/15 00:28:57;;;;;;;13.85;1.48;;;8.60;99.90;;;;;;5043292;28;20049;-77
2023/10/15 00:31:24;;;;;;;2.15;0.60;;;8.60;99.90;;;;;;5055601;28;20051;-75
2023/10/15 00:33:50;;;;;;;0.77;0.70;;;8.60;99.90;;;;;;5061024;28;20534;-76
2023/10/15 00:36:16;;;;;;;1.77;0.65;;;8.60;99.90;;;;;;5042213;28;20511;-77
2023/10/15 00:38:43;;;;;;;1.13;1.00;;;8.60;99.90;;;;;;5043323;28;20088;-77
2023/10/15 00:41:13;;;;;;;1.08;0.93;;;8.70;99.90;;;;;;5043648;28;20068;-77
2023/10/15 00:43:54;;;;;;;4.25;1.40;;;8.60;99.90;;;;;;5042658;28;20045;-76
2023/10/15 00:46:22;;;;;;;1.55;0.35;;;8.60;99.90;;;;;;5044402;28;20060;-76
2023/10/15 00:48:48;;;;;;;5.85;2.13;;;8.60;99.90;;;;;;5062069;28;20098;-76
2023/10/15 00:51:16;;;;;;;8.43;0.98;;;8.50;99.90;;;;;;5060908;28;20063;-76
2023/10/15 00:53:54;;;;;;;0.95;0.85;;;8.60;99.90;;;;;;5044924;28;20090;-76
2023/10/15 00:56:25;;;;;;;1.45;1.00;;;8.50;99.90;;;;;;5061479;28;20386;-76
2023/10/15 01:03:56;;;;;;;2.28;0.75;;;8.40;99.90;;;;;;5061391;28;20461;-75
2023/10/15 01:06:30;;;;;;;1.20;0.50;;;8.40;99.90;;;;;;5060012;28;20094;-76
2023/10/15 01:09:10;;;;;;;2.72;1.00;;;8.40;99.90;;;;;;5102161;22;20064;-76
2023/10/15 01:11:58;;;;;;;0.63;0.63;;;8.40;99.90;;;;;;5022034;28;20053;-76
2023/10/15 01:14:31;;;;;;;2.80;0.47;;;8.40;99.90;;;;;;5022179;28;20136;-76
2023/10/15 01:16:59;;;;;;;3.13;0.70;;;8.40;99.90;;;;;;5022455;28;20049;-76
2023/10/15 01:19:32;;;;;;;8.63;0.80;;;8.50;99.90;;;;;;5021218;28;20125;-76
2023/10/15 01:22:02;;;;;;;1.83;0.90;;;8.40;99.90;;;;;;5020370;28;20042;-76
2023/10/15 01:24:32;;;;;;;0.85;0.73;;;8.40;99.90;;;;;;5022355;28;20756;-76
2023/10/15 01:29:34;;;;;;;7.22;0.95;;;8.40;99.90;;;;;;5020925;28;20053;-76
2023/10/15 01:32:21;;;;;;;1.40;0.43;;;8.40;99.90;;;;;;5022401;28;20128;-76
2023/10/15 01:34:49;;;;;;;0.32;0.22;;;8.40;99.90;;;;;;5020662;28;20045;-76
2023/10/15 01:39:49;;;;;;;3.75;1.42;;;8.40;99.90;;;;;;5022970;28;20132;-76
2023/10/15 01:45:07;;;;;;;0.52;0.45;;;8.40;99.90;;;;;;5021351;28;20179;-76
2023/10/15 01:47:35;;;;;;;1.00;0.38;;;8.30;99.90;;;;;;5021901;28;20049;-75
2023/10/15 01:50:08;;;;;;;0.77;0.52;;;8.30;99.90;;;;;;5019838;28;20072;-77
2023/10/15 01:52:39;;;;;;;;;;;8.30;99.90;;;;;;5004842;28;20403;-75
2023/10/15 01:55:06;;;;;;;2.55;0.68;;;8.20;99.90;;;;;;5021622;28;20442;-76
2023/10/15 01:57:32;;;;;;;0.70;0.50;;;8.10;99.90;;;;;;5020208;28;20049;-75
2023/10/15 02:00:05;;;;;;;1.42;0.70;;;8.10;99.90;;;;;;5021622;28;20522;-76
2023/10/15 02:02:32;;;;;;;1.00;0.47;;;8.00;99.90;;;;;;5020243;28;20131;-75
2023/10/15 02:04:58;;;;;;;1.58;1.00;;;8.00;99.90;;;;;;5020388;28;20045;-77
2023/10/15 02:07:30;;;;;;;1.60;0.93;;;7.90;99.90;;;;;;5011429;28;20160;-76
2023/10/15 02:09:56;;;;;;;2.05;0.45;;;7.90;99.90;;;;;;5000674;28;20443;-75
2023/10/15 02:12:22;;;;;;;0.95;0.30;;;7.90;99.90;;;;;;5002167;28;20100;-76
2023/10/15 02:14:48;;;;;;;2.72;0.55;;;7.90;99.90;;;;;;5001015;28;20081;-75
2023/10/15 02:17:15;;;;;;;2.08;0.40;;;7.90;99.90;;;;;;5000313;28;20046;-75
2023/10/15 02:19:41;;;;;;;1.33;0.22;;;7.90;99.90;;;;;;5013104;28;20099;-75
2023/10/15 02:22:12;;;;;;;2.28;0.38;;;7.80;99.90;;;;;;4988687;28;20054;-75
2023/10/15 02:24:37;;;;;;;0.30;0.20;;;7.80;99.90;;;;;;5020235;28;20045;-75
2023/10/15 02:27:05;;;;;;;0.30;0.28;;;7.80;99.90;;;;;;5020286;28;20045;-75
2023/10/15 02:32:06;;;;;;;0.75;0.20;;;7.80;99.90;;;;;;5000497;28;20073;-76
2023/10/15 02:34:31;;;;;;;0.20;0.20;;;7.80;99.90;;;;;;5000309;28;20049;-75
2023/10/15 02:37:03;;;;;;;0.20;0.20;;;7.80;99.90;;;;;;4999935;28;20104;-75
2023/10/15 02:39:36;;;;;;;0.35;0.25;;;7.80;99.90;;;;;;5001420;28;20042;-76
2023/10/15 02:42:02;;;;;;;2.15;0.30;;;7.80;99.90;;;;;;5005047;28;20060;-76
2023/10/15 02:44:32;;;;;;;2.13;0.68;;;7.80;99.90;;;;;;5020638;28;20056;-75
2023/10/15 02:47:07;;;;;;;0.47;0.25;;;7.80;99.90;;;;;;5019613;28;20057;-75
2023/10/15 02:52:23;;;;;;;0.65;0.20;;;7.80;99.90;;;;;;5000672;28;20503;-76
2023/10/15 02:54:49;;;;;;;6.13;0.30;;;7.70;99.90;;;;;;5003965;28;20057;-75
2023/10/15 02:57:16;;;;;;;1.75;0.40;;;7.70;99.90;;;;;;5020923;28;20073;-75
2023/10/15 02:59:50;;;;;;;0.22;0.22;;;7.70;99.90;;;;;;5003402;28;20083;-76
2023/10/15 03:02:17;;;;;;;0.55;0.45;;;7.70;99.90;;;;;;5020951;28;20049;-76
2023/10/15 03:04:50;;;;;;;1.13;0.35;;;7.70;99.90;;;;;;5003631;28;20563;-75
2023/10/15 03:07:30;;;;;;;0.10;0.10;;;7.70;99.90;;;;;;5019290;28;20100;-75
2023/10/15 03:09:59;;;;;;;0.52;0.10;;;7.70;99.90;;;;;;5019988;28;20081;-76
2023/10/15 03:12:25;;;;;;;1.85;0.30;;;7.70;99.90;;;;;;5003944;28;20531;-75
2023/10/15 03:14:54;;;;;;;2.05;0.20;;;7.70;99.90;;;;;;5020818;28;20099;-75
2023/10/15 03:17:29;;;;;;;3.13;0.40;;;7.70;99.90;;;;;;5021135;28;20061;-76
2023/10/15 03:19:56;;;;;;;0.65;0.32;;;7.70;99.90;;;;;;5020143;28;20045;-76
2023/10/15 03:22:24;;;;;;;1.25;1.00;;;7.80;99.90;;;;;;5022537;28;20077;-76
2023/10/15 03:24:53;;;;;;;0.50;0.50;;;7.70;99.90;;;;;;5024437;28;20038;-75
2023/10/15 03:27:26;;;;;;;1.45;0.45;;;7.70;99.90;;;;;;5022975;28;20056;-75
2023/10/15 03:29:51;;;;;;;1.13;0.40;;;7.70;99.90;;;;;;5023580;28;20672;-76
2023/10/15 03:32:17;;;;;;;0.50;0.50;;;7.70;99.90;;;;;;5022926;28;20069;-74
2023/10/15 03:34:47;;;;;;;0.50;0.40;;;7.70;99.90;;;;;;5023516;28;20475;-75
2023/10/15 03:37:14;;;;;;;1.90;0.45;;;7.70;99.90;;;;;;5022882;28;20103;-75
2023/10/15 03:44:47;;;;;;;2.08;0.25;;;7.70;99.90;;;;;;5029941;28;20083;-76
2023/10/15 03:47:14;;;;;;;5.88;0.75;;;7.80;99.90;;;;;;5022172;28;20045;-75
2023/10/15 03:49:39;;;;;;;1.45;0.30;;;7.80;99.90;;;;;;5023533;28;20041;-76
2023/10/15 03:52:08;;;;;;;3.15;0.65;;;7.80;99.90;;;;;;5023957;28;20045;-75
2023/10/15 03:54:37;;;;;;;0.20;0.20;;;7.70;99.90;;;;;;5022062;28;20579;-75
2023/10/15 03:57:03;;;;;;;0.30;0.22;;;7.70;99.90;;;;;;5022899;28;20042;-75
2023/10/15 03:59:28;;;;;;;1.88;1.02;;;7.70;99.90;;;;;;5022298;28;20280;-75
2023/10/15 04:01:56;;;;;;;1.45;0.30;;;7.70;99.90;;;;;;5022297;28;20041;-75
2023/10/15 04:04:22;;;;;;;1.55;0.80;;;7.80;99.90;;;;;;5022361;28;20049;-75
2023/10/15 04:06:52;;;;;;;0.70;0.40;;;7.80;99.90;;;;;;5022155;28;20061;-75
2023/10/15 04:09:25;;;;;;;0.45;0.32;;;7.80;99.90;;;;;;5022075;28;20124;-75
2023/10/15 04:11:51;;;;;;;0.77;0.45;;;7.90;99.90;;;;;;5022422;28;20046;-74
2023/10/15 04:14:28;;;;;;;5.07;0.70;;;7.90;99.90;;;;;;5022350;28;20068;-75
2023/10/15 04:16:59;;;;;;;0.88;0.80;;;7.90;99.90;;;;;;5022964;28;20052;-76
2023/10/15 04:19:31;;;;;;;3.35;0.70;;;8.00;99.90;;;;;;5022269;28;20140;-75
2023/10/15 04:22:00;;;;;;;3.28;0.30;;;8.10;99.90;;;;;;5023164;28;20049;-75
2023/10/15 04:24:42;;;;;;;1.40;0.50;;;8.10;99.90;;;;;;5005780;28;20034;-75
2023/10/15 04:27:15;;;;;;;1.63;0.35;;;8.00;99.90;;;;;;5022777;28;20104;-75
2023/10/15 04:29:54;;;;;;;1.65;1.00;;;8.10;99.90;;;;;;5022982;28;20071;-75
2023/10/15 04:32:44;;;;;;;1.35;1.08;;;8.10;99.90;;;;;;5022870;28;20121;-75
2023/10/15 04:35:25;;;;;;;2.17;0.30;;;8.10;99.90;;;;;;5021071;28;20103;-76
2023/10/15 04:37:56;;;;;;;2.13;0.30;;;8.10;99.90;;;;;;5023252;28;20037;-75
2023/10/15 04:40:23;;;;;;;1.85;0.43;;;8.10;99.90;;;;;;5023226;28;20333;-76
2023/10/15 04:42:49;;;;;;;0.93;0.80;;;8.10;99.90;;;;;;5023581;28;20399;-76
2023/10/15 04:45:23;;;;;;;7.68;1.00;;;8.10;99.90;;;;;;5022697;28;20107;-75
2023/10/15 04:47:55;;;;;;;1.38;0.40;;;8.10;99.90;;;;;;5022629;28;20092;-75
2023/10/15 04:50:26;;;;;;;10.68;0.90;;;8.00;99.90;;;;;;5022091;28;20072;-75
2023/10/15 04:52:52;;;;;;;0.88;0.20;;;8.10;99.90;;;;;;5022812;28;20053;-75
2023/10/15 04:55:17;;;;;;;3.13;0.47;;;8.10;99.90;;;;;;5020789;28;20057;-75
2023/10/15 04:57:44;;;;;;;0.55;0.55;;;8.00;99.90;;;;;;5023070;28;20041;-75
2023/10/15 05:00:11;;;;;;;0.52;0.20;;;8.00;99.90;;;;;;5022162;28;20034;-76
2023/10/15 05:02:36;;;;;;;1.10;0.20;;;8.00;99.90;;;;;;5023934;28;20041;-75
2023/10/15 05:05:05;;;;;;;7.45;0.52;;;8.10;99.90;;;;;;5020244;28;20401;-75
2023/10/15 05:07:32;;;;;;;1.75;0.50;;;8.10;99.90;;;;;;5013333;28;20046;-76
2023/10/15 05:09:59;;;;;;;1.83;0.80;;;8.10;99.90;;;;;;5021751;28;20060;-75
2023/10/15 05:12:25;;;;;;;3.83;0.57;;;8.00;99.90;;;;;;5017465;28;20042;-75
2023/10/15 05:14:51;;;;;;;2.78;0.57;;;8.10;99.90;;;;;;5003140;28;20319;-75
2023/10/15 05:17:16;;;;;;;0.68;0.35;;;8.00;99.90;;;;;;5001443;28;20046;-75
2023/10/15 05:19:42;;;;;;;0.88;0.30;;;8.00;99.90;;;;;;5000926;28;20056;-76
2023/10/15 05:22:08;;;;;;;2.20;0.45;;;7.90;99.90;;;;;;5003993;28;20049;-75
2023/10/15 05:24:35;;;;;;;2.03;0.25;;;7.70;99.90;;;;;;5008087;28;20106;-75
2023/10/15 05:27:01;;;;;;;6.00;0.73;;;7.60;99.90;;;;;;5034445;28;20065;-76
2023/10/15 05:29:26;;;;;;;0.65;0.65;;;7.40;99.90;;;;;;5019911;28;20435;-75
2023/10/15 05:31:53;;;;;;;0.70;0.20;;;7.40;99.90;;;;;;5011482;28;20053;-75
2023/10/15 05:34:20;;;;;;;0.32;0.32;;;7.30;99.90;;;;;;5021199;28;20406;-75
2023/10/15 05:36:45;;;;;;;0.40;0.40;;;7.20;99.90;;;;;;5021289;28;20040;-75
2023/10/15 05:39:15;;;;;;;0.65;0.20;;;7.20;99.90;;;;;;5020621;28;20080;-75
2023/10/15 05:41:44;;;;;;;1.88;0.60;;;7.30;99.90;;;;;;5022392;28;20733;-76
2023/10/15 05:44:10;;;;;;;0.20;0.20;;;7.30;99.90;;;;;;5022293;28;20049;-77
2023/10/15 05:46:35;;;;;;;0.15;0.10;;;7.30;99.90;;;;;;5022343;28;20040;-76
2023/10/15 05:49:01;;;;;;;2.78;1.13;;;7.30;99.90;;;;;;5012291;28;20081;-76
2023/10/15 05:51:30;;;;;;;0.32;0.32;;;7.20;99.90;;;;;;5000009;28;20050;-76
2023/10/15 05:53:55;;;;;;;0.52;0.25;;;7.10;99.90;;;;;;5003322;28;20037;-76
2023/10/15 05:56:21;;;;;;;1.45;0.77;;;7.00;99.90;;;;;;5021945;28;20499;-76
2023/10/15 05:58:47;;;;;;;1.48;0.55;;;6.90;99.90;;;;;;5020029;28;20402;-76
2023/10/15 06:01:15;;;;;;;0.82;0.40;;;6.90;99.90;;;;;;5021658;28;20045;-76
2023/10/15 06:03:40;;;;;;;0.40;0.30;;;6.80;99.90;;;;;;5021664;28;20048;-77
2023/10/15 06:06:06;;;;;;;1.75;0.20;;;6.80;99.90;;;;;;5021141;28;20037;-76
2023/10/15 06:08:32;;;;;;;0.70;0.30;;;6.80;99.90;;;;;;5021360;28;20496;-76
2023/10/15 06:10:58;;;;;;;0.65;0.65;;;6.80;99.90;;;;;;5020272;28;20128;-76
2023/10/15 06:13:23;;;;;;;1.80;0.30;;;6.90;99.90;;;;;;5019671;28;20133;-76
2023/10/15 06:15:50;;;;;;;1.38;0.60;;;6.90;99.90;;;;;;5021528;28;20072;-76
2023/10/15 06:18:16;;;;;;;0.38;0.20;;;7.00;99.90;;;;;;5019708;28;20083;-76
2023/10/15 06:20:42;;;;;;;2.00;0.22;;;7.00;99.90;;;;;;5018756;28;20081;-76
2023/10/15 06:23:08;;;;;;;1.02;0.20;;;7.00;99.90;;;;;;5022212;28;20696;-76
2023/10/15 06:25:35;;;;;;;0.43;0.43;;;7.00;99.90;;;;;;5020591;28;20051;-76
2023/10/15 06:28:01;;;;;;;1.58;0.30;;;7.00;99.90;;;;;;5021485;28;20114;-76
2023/10/15 06:30:27;;;;;;;1.67;1.38;;;7.00;99.90;;;;;;5020267;28;20091;-76
2023/10/15 06:32:55;;;;;;;3.53;1.05;;;7.00;99.90;;;;;;5020108;28;20057;-76
2023/10/15 06:35:25;;;;;;;1.02;0.70;;;7.10;99.90;;;;;;5020125;28;20599;-76
2023/10/15 06:37:55;;;;;;;0.10;0.10;;;7.10;99.90;;;;;;5021826;28;20087;-76
2023/10/15 06:40:21;;;;;;;2.97;1.15;;;7.20;99.90;;;;;;5020049;28;20483;-76
2023/10/15 06:42:47;;;;;;;4.15;0.88;;;7.20;99.90;;;;;;5019538;28;20038;-76
2023/10/15 06:45:19;;;;;;;0.73;0.50;;;7.20;99.90;;;;;;5004101;28;20671;-76
2023/10/15 06:47:47;;;;;;;2.60;1.00;;;7.20;99.90;;;;;;5021415;28;20761;-77
2023/10/15 06:50:12;;;;;;;0.30;0.30;;;7.20;99.90;;;;;;5019871;28;20130;-76
2023/10/15 06:52:39;;;;;;;7.75;1.25;;;7.30;99.90;;;;;;5021712;28;20134;-77
2023/10/15 06:55:07;;;;;;;0.63;0.60;;;7.20;99.90;;;;;;5022124;28;20034;-76
2023/10/15 06:57:33;;;;;;;1.02;0.52;;;7.20;99.90;;;;;;5022305;28;20041;-76
2023/10/15 06:59:59;;;;;;;1.50;0.63;;;7.20;99.90;;;;;;5025326;28;20065;-77
2023/10/15 07:02:28;;;;;;;2.53;0.45;;;7.20;99.90;;;;;;5023663;28;20089;-76
2023/10/15 07:04:55;;;;;;;0.22;0.20;;;7.20;99.90;;;;;;5022450;28;20045;-76
2023/10/15 07:07:21;;;;;;;0.45;0.38;;;7.20;99.90;;;;;;5024373;28;20052;-76
2023/10/15 07:09:46;;;;;;;3.30;0.63;;;7.20;99.90;;;;;;5024027;28;20547;-76
2023/10/15 07:12:12;;;;;;;0.20;0.20;;;7.20;99.90;;;;;;5024126;28;20069;-77
2023/10/15 07:14:39;;;;;;;2.05;0.30;;;7.20;99.90;;;;;;5025158;28;20069;-76
2023/10/15 07:17:05;;;;;;;0.40;0.40;;;7.20;99.90;;;;;;5023272;28;20049;-76
2023/10/15 07:19:30;;;;;;;0.20;0.20;;;7.20;99.90;;;;;;5022448;28;20475;-76
2023/10/15 07:21:56;;;;;;;0.52;0.52;;;7.30;99.90;;;;;;5023186;28;20136;-76
2023/10/15 07:24:22;;;;;;;4.28;0.65;;;7.30;99.90;;;;;;5024428;28;20049;-76
2023/10/15 07:26:48;;;;;;;1.30;0.63;;;7.40;99.90;;;;;;5024376;28;20037;-76
2023/10/15 07:29:14;;;;;;;0.50;0.50;;;7.40;99.90;;;;;;5037539;28;20067;-76
2023/10/15 07:31:39;;;;;;;0.30;0.30;;;7.40;99.90;;;;;;5024386;28;20045;-76
2023/10/15 07:34:05;;;;;;;0.73;0.43;;;7.50;99.90;;;;;;5020033;28;20056;-75
2023/10/15 07:36:32;;;;;;;10.00;0.65;;;7.50;99.90;;;;;;5031261;28;20044;-75
2023/10/15 07:38:58;;;;;;;5.25;0.88;;;7.50;99.90;;;;;;5044580;28;20049;-76
2023/10/15 07:41:23;;;;;;;2.78;0.95;;;7.60;99.90;;;;;;5026471;28;20168;-76
2023/10/15 07:43:49;;;;;;;3.30;1.10;;;7.70;99.90;;;;;;5024888;28;20499;-76
2023/10/15 07:46:14;;;;;;;0.85;0.32;;;7.80;99.90;;;;;;5024532;28;20041;-76
2023/10/15 07:48:40;;;;;;;5.38;0.98;;;7.80;99.90;;;;;;5024360;28;20082;-77
2023/10/15 07:51:06;;;;;;;0.40;0.40;;;7.90;99.90;;;;;;5023213;28;20045;-76
2023/10/15 07:53:32;;;;;;;3.13;0.55;;;7.90;99.90;;;;;;5022888;28;20195;-76
2023/10/15 07:55:57;;;;;;;0.57;0.30;;;8.00;99.90;;;;;;5023563;28;20037;-76
2023/10/15 07:58:23;;;;;;;2.53;0.82;;;7.90;99.90;;;;;;5024558;28;20123;-76
2023/10/15 08:00:50;;;;;;;1.85;0.77;;;7.80;99.90;;;;;;5027427;28;20044;-75
2023/10/15 08:03:16;;;;;;;0.73;0.20;;;7.80;99.90;;;;;;5022858;28;20472;-77
2023/10/15 08:05:42;;;;;;;1.05;0.88;;;7.70;99.90;;;;;;5022669;28;20073;-76
2023/10/15 08:08:08;;;;;;;0.30;0.30;;;7.70;99.90;;;;;;5011970;28;20053;-76
2023/10/15 08:10:34;;;;;;;2.30;0.40;;;7.70;99.90;;;;;;5027869;28;20619;-76
2023/10/15 08:13:01;;;;;;;0.30;0.13;;;7.70;99.90;;;;;;5025804;28;20110;-76
2023/10/15 08:15:27;;;;;;;1.80;0.22;;;7.70;99.90;;;;;;5025749;28;20100;-77
2023/10/15 08:17:53;;;;;;;0.55;0.20;;;7.70;99.90;;;;;;5007216;28;20042;-76
2023/10/15 08:20:18;;;;;;;0.70;0.63;;;7.70;99.90;;;;;;5022735;28;20037;-76
2023/10/15 08:22:45;;;;;;;2.20;0.63;;;7.70;99.90;;;;;;5022404;28;20084;-76
2023/10/15 08:25:14;;;;;;;0.63;0.63;;;7.70;99.90;;;;;;5028085;28;20095;-76
2023/10/15 08:27:44;;;;;;;3.30;0.32;;;7.70;99.90;;;;;;5015229;28;20119;-76
2023/10/15 08:30:14;;;;;;;0.63;0.63;;;7.70;99.90;;;;;;5019498;28;20546;-77
2023/10/15 08:32:44;;;;;;;1.83;0.47;;;7.80;99.90;;;;;;5017990;28;20044;-77
2023/10/15 08:35:10;;;;;;;1.20;0.40;;;7.90;99.90;;;;;;5015233;28;20133;-78
2023/10/15 08:37:42;;;;;;;0.30;0.22;;;8.00;99.90;;;;;;5017636;28;20119;-77
2023/10/15 08:40:15;;;;;;;2.63;0.75;;;8.00;99.90;;;;;;5008351;28;20438;-77
2023/10/15 08:43:09;;;;;;;0.88;0.75;;;8.10;99.90;;;;;;5029738;28;20057;-76
2023/10/15 08:45:36;;;;;;;1.10;0.60;;;8.10;99.90;;;;;;5020847;28;20038;-75
2023/10/15 08:48:05;;;;;;;0.95;0.57;;;8.10;99.90;;;;;;5019954;28;20061;-76
2023/10/15 08:50:36;;;;;;;0.43;0.43;;;8.20;99.90;;;;;;5037513;28;20048;-75
2023/10/15 08:53:04;;;;;;;0.40;0.40;;;8.30;99.90;;;;;;5020597;28;20542;-75
2023/10/15 08:55:32;;;;;;;0.63;0.25;;;8.40;99.90;;;;;;5020798;28;20049;-76
2023/10/15 08:57:59;;;;;;;1.25;0.47;;;8.50;99.90;;;;;;5030865;28;20424;-75
2023/10/15 09:00:25;;;;;;;0.95;0.65;;;8.60;99.90;;;;;;5040185;28;20053;-76
2023/10/15 09:03:00;;;;;;;3.35;1.45;;;8.70;99.90;;;;;;5017583;28;20037;-76
2023/10/15 09:05:30;;;;;;;1.75;0.30;;;8.90;99.90;;;;;;5018940;28;20065;-76
2023/10/15 09:07:56;;;;;;;2.92;0.70;;;9.00;99.90;;;;;;5016164;28;20079;-75
2023/10/15 09:10:22;;;;;;;0.68;0.50;;;9.10;99.90;;;;;;5019172;28;20061;-75
2023/10/15 09:12:49;;;;;;;2.92;0.65;;;9.10;99.90;;;;;;5017055;28;20565;-76
2023/10/15 09:15:16;;;;;;;1.90;0.80;;;9.10;99.90;;;;;;5022819;28;20495;-75
2023/10/15 09:17:49;;;;;;;4.43;1.10;;;9.00;99.90;;;;;;5015575;28;20037;-75
2023/10/15 09:20:25;;;;;;;2.00;0.80;;;9.00;99.90;;;;;;5020664;28;20549;-74
2023/10/15 09:22:51;;;;;;;0.80;0.50;;;8.90;99.90;;;;;;5015072;28;20381;-75
2023/10/15 09:25:17;;;;;;;1.13;0.63;;;8.90;99.90;;;;;;5021806;28;20093;-75
2023/10/15 09:27:46;;;;;;;2.70;0.98;;;9.00;99.90;;;;;;5005816;28;20034;-75
2023/10/15 09:30:18;;;;;;;1.02;0.98;;;9.00;99.90;;;;;;5015250;28;20502;-75
2023/10/15 09:32:47;;;;;;;1.67;0.45;;;9.10;99.90;;;;;;5009627;28;20038;-75
2023/10/15 09:35:13;;;;;;;3.75;0.50;;;9.20;99.90;;;;;;5007045;28;20053;-75
2023/10/15 09:37:39;;;;;;;0.90;0.70;;;9.20;99.90;;;;;;5019917;28;20523;-75
2023/10/15 09:40:19;;;;;;;1.33;0.35;;;9.30;99.90;;;;;;5018313;28;20041;-77
2023/10/15 09:42:52;;;;;;;3.53;0.82;;;9.40;99.90;;;;;;5001956;28;20049;-73
2023/10/15 09:45:18;;;;;;;0.88;0.57;;;9.40;99.90;;;;;;5020265;28;20047;-73
2023/10/15 09:47:49;;;;;;;0.75;0.30;;;9.50;99.90;;;;;;5000636;28;20128;-79
2023/10/15 09:50:19;;;;;;;4.45;0.70;;;9.50;99.90;;;;;;5017785;28;20052;-76
2023/10/15 09:52:55;;;;;;;0.65;0.30;;;9.50;99.90;;;;;;5019837;28;20045;-78
2023/10/15 09:55:28;;;;;;;0.68;0.38;;;9.50;99.90;;;;;;5021203;28;20138;-78
2023/10/15 09:57:57;;;;;;;1.48;0.10;;;9.60;99.90;;;;;;5020601;28;20291;-78
2023/10/15 10:00:46;;;;;;;0.50;0.50;;;9.70;99.90;;;;;;5020534;28;20045;-78
2023/10/15 10:03:47;;;;;;;0.77;0.40;;;9.70;99.90;;;;;;5020418;28;20041;-77
2023/10/15 10:06:31;;;;;;;0.30;0.30;;;9.60;99.90;;;;;;5019757;28;20538;-77
2023/10/15 10:09:21;;;;;;;3.85;1.05;;;9.50;99.90;;;;;;5016942;28;20060;-78
2023/10/15 10:11:59;;;;;;;1.48;0.32;;;9.40;99.90;;;;;;5001337;28;20050;-77
2023/10/15 10:14:42;;;;;;;2.28;0.40;;;9.40;99.90;;;;;;5001571;28;20127;-77
2023/10/15 10:17:11;;;;;;;3.60;0.40;;;9.30;99.90;;;;;;5000401;28;20058;-77
2023/10/15 10:19:41;;;;;;;11.02;1.20;;;9.20;99.90;;;;;;5000683;28;20065;-77
2023/10/15 10:22:37;;;;;;;0.85;0.50;;;9.20;99.90;;;;;;4984709;28;20584;-77
2023/10/15 10:25:03;;;;;;;2.38;0.60;;;9.20;99.90;;;;;;4992861;28;20050;-77
2023/10/15 10:27:43;;;;;;;5.80;0.88;;;9.20;99.90;;;;;;5000530;28;20045;-78
2023/10/15 10:30:42;;;;;;;2.83;0.73;;;9.30;99.90;;;;;;5001817;28;20096;-77
2023/10/15 10:33:09;;;;;;;0.55;0.35;;;9.30;99.90;;;;;;4997656;28;20136;-77
2023/10/15 10:35:43;;;;;;;1.25;0.88;;;9.30;99.90;;;;;;5004187;28;20049;-77
2023/10/15 10:38:16;;;;;;;2.30;0.90;;;9.40;99.90;;;;;;5005859;28;20448;-77
2023/10/15 10:40:48;;;;;;;0.35;0.35;;;9.50;99.90;;;;;;5004348;28;20045;-78
2023/10/15 10:43:23;;;;;;;0.47;0.20;;;9.60;99.90;;;;;;5004778;28;20447;-78
2023/10/15 10:45:53;;;;;;;1.27;0.60;;;9.50;99.90;;;;;;5003958;28;20476;-79
2023/10/15 10:48:23;;;;;;;2.10;0.50;;;9.50;99.90;;;;;;5003980;28;20046;-78
2023/10/15 10:51:12;;;;;;;2.15;0.38;;;9.40;99.90;;;;;;5004868;28;20034;-78
2023/10/15 10:53:58;;;;;;;1.13;0.50;;;9.30;99.90;;;;;;5005468;28;20038;-77
2023/10/15 10:56:39;;;;;;;2.22;0.30;;;9.30;99.90;;;;;;4996974;28;20108;-78
2023/10/15 10:59:06;;;;;;;1.00;0.47;;;9.30;99.90;;;;;;5004003;28;20038;-78
2023/10/15 11:01:39;;;;;;;2.17;0.30;;;9.30;99.90;;;;;;5004784;28;20235;-78
2023/10/15 11:04:09;;;;;;;1.58;0.57;;;9.30;99.90;;;;;;4987282;28;20038;-78
2023/10/15 11:06:42;;;;;;;2.47;0.45;;;9.30;99.90;;;;;;5004168;28;20049;-78
2023/10/15 11:09:21;;;;;;;5.55;1.02;;;9.40;99.90;;;;;;5005074;28;20547;-78
2023/10/15 11:11:48;;;;;;;0.93;0.40;;;9.40;99.90;;;;;;4987452;28;20050;-77
2023/10/15 11:14:18;;;;;;;4.07;0.63;;;9.50;99.90;;;;;;4987394;28;20038;-77
2023/10/15 11:16:45;;;;;;;1.13;0.28;;;9.50;99.90;;;;;;5017826;28;20037;-78
2023/10/15 11:19:18;;;;;;;2.63;0.55;;;9.60;99.90;;;;;;5019067;28;20228;-79
2023/10/15 11:21:44;;;;;;;1.27;0.50;;;9.70;99.90;;;;;;5021556;28;20099;-78
2023/10/15 11:24:11;;;;;;;3.08;0.50;;;9.70;99.90;;;;;;5018314;28;20157;-77
2023/10/15 11:26:41;;;;;;;0.65;0.60;;;9.70;99.90;;;;;;5019807;28;20037;-78
2023/10/15 11:29:25;;;;;;;9.55;1.25;;;9.80;99.90;;;;;;5024530;28;20116;-77
2023/10/15 11:31:56;;;;;;;1.88;0.73;;;9.80;99.90;;;;;;4999908;28;20091;-76
2023/10/15 11:34:24;;;;;;;3.25;0.63;;;9.90;99.90;;;;;;5019387;28;20048;-76
2023/10/15 11:36:55;;;;;;;1.98;0.57;;;10.00;99.90;;;;;;5020123;28;20057;-75
2023/10/15 11:42:19;;;;;;;0.88;0.50;;;10.20;99.90;;;;;;5012213;28;20042;-75
2023/10/15 11:44:45;;;;;;;0.38;0.38;;;10.30;99.90;;;;;;5021040;28;20042;-76
2023/10/15 11:47:15;;;;;;;2.40;0.63;;;10.20;99.90;;;;;;5022216;28;20037;-77
2023/10/15 11:49:44;;;;;;;1.25;0.85;;;10.10;99.90;;;;;;5022515;28;20065;-78
2023/10/15 11:52:19;;;;;;;0.40;0.35;;;10.10;99.90;;;;;;5017591;28;20037;-78
2023/10/15 11:54:51;;;;;;;3.60;0.63;;;10.00;99.90;;;;;;5006608;28;20038;-75
2023/10/15 11:57:20;;;;;;;;;;;10.10;99.90;;;;;;5025184;28;20124;-75
2023/10/15 11:59:48;;;;;;;0.75;0.38;;;10.10;99.90;;;;;;5022157;28;19921;-76
2023/10/15 12:02:14;;;;;;;0.95;0.40;;;10.10;99.90;;;;;;5028091;28;20404;-77
2023/10/15 12:04:40;;;;;;;6.03;0.52;;;10.10;99.90;;;;;;5003206;28;20164;-79
2023/10/15 12:07:06;;;;;;;2.63;0.90;;;10.10;99.90;;;;;;5020844;28;20057;-77
2023/10/15 12:09:32;;;;;;;0.30;0.30;;;10.20;99.90;;;;;;5013728;28;20041;-77
2023/10/15 12:11:59;;;;;;;2.55;0.55;;;10.20;99.90;;;;;;5010943;28;20087;-76
2023/10/15 12:14:24;;;;;;;0.50;0.30;;;10.20;99.90;;;;;;5025019;28;20132;-78
2023/10/15 12:16:50;;;;;;;1.13;0.55;;;10.20;99.90;;;;;;5014672;28;20120;-78
2023/10/15 12:19:17;;;;;;;1.42;0.43;;;10.30;99.90;;;;;;5019431;28;20045;-76
2023/10/15 12:21:43;;;;;;;11.32;0.68;;;10.30;99.90;;;;;;5014577;28;20286;-76
2023/10/15 12:24:10;;;;;;;2.28;1.08;;;10.30;99.90;;;;;;5014324;28;20041;-77
2023/10/15 12:26:36;;;;;;;0.55;0.40;;;10.30;99.90;;;;;;5022213;28;20041;-75
2023/10/15 12:29:08;;;;;;;2.90;0.40;;;10.30;99.90;;;;;;5021948;28;20480;-76
2023/10/15 12:31:38;;;;;;;1.45;0.20;;;10.30;99.90;;;;;;5004756;28;20041;-76
2023/10/15 12:34:04;;;;;;;0.28;0.28;;;10.10;99.90;;;;;;5002970;28;20052;-76
2023/10/15 12:36:30;;;;;;;0.30;0.30;;;10.00;99.90;;;;;;5014833;28;20041;-76
2023/10/15 12:38:58;;;;;;;0.10;0.10;;;9.90;99.90;;;;;;5004330;28;20057;-75
2023/10/15 12:41:25;;;;;;;1.27;0.10;;;9.80;99.90;;;;;;5000521;28;20522;-75
2023/10/15 12:43:58;;;;;;;0.55;0.43;;;9.80;99.90;;;;;;5005075;28;20189;-76
2023/10/15 12:46:29;;;;;;;0.88;0.13;;;9.80;99.90;;;;;;5016355;28;20115;-76
2023/10/15 12:48:56;;;;;;;0.43;0.30;;;9.80;99.90;;;;;;5028836;28;20053;-76
2023/10/15 12:51:22;;;;;;;0.75;0.40;;;9.80;99.90;;;;;;5014285;28;20092;-76
2023/10/15 12:53:48;;;;;;;0.25;0.15;;;9.90;99.90;;;;;;5018821;28;20072;-74
2023/10/15 12:56:13;;;;;;;0.25;0.25;;;10.00;99.90;;;;;;5020234;28;20112;-79
2023/10/15 12:58:39;;;;;;;1.33;1.23;;;10.00;99.90;;;;;;5001345;28;20065;-75
2023/10/15 13:01:05;;;;;;;1.85;1.35;;;9.90;99.90;;;;;;5002412;28;20050;-74
2023/10/15 13:03:32;;;;;;;4.38;0.47;;;9.80;99.90;;;;;;5015367;28;20046;-74
2023/10/15 13:05:58;;;;;;;4.45;0.60;;;9.70;99.90;;;;;;5016742;28;20461;-74
2023/10/15 13:08:23;;;;;;;0.95;0.40;;;9.70;99.90;;;;;;5019322;28;20128;-74
2023/10/15 13:10:49;;;;;;;2.08;0.55;;;9.60;99.90;;;;;;5020495;28;20055;-73
2023/10/15 13:13:15;;;;;;;2.50;1.20;;;9.60;99.90;;;;;;5018130;28;20492;-74
2023/10/15 13:15:40;;;;;;;0.68;0.68;;;9.60;99.90;;;;;;5020725;28;20322;-76
2023/10/15 13:18:06;;;;;;;4.38;0.35;;;9.50;99.90;;;;;;5020038;28;20057;-74
2023/10/15 13:20:32;;;;;;;5.07;0.85;;;9.50;99.90;;;;;;5018629;28;20041;-74
2023/10/15 13:22:57;;;;;;;2.10;0.60;;;9.50;99.90;;;;;;5003555;28;20095;-75
2023/10/15 13:25:23;;;;;;;2.25;0.57;;;9.40;99.90;;;;;;5021290;28;20450;-75
2023/10/15 13:27:48;;;;;;;4.18;0.25;;;9.40;99.90;;;;;;5019204;28;20542;-74
2023/10/15 13:30:17;;;;;;;2.28;0.45;;;9.40;99.90;;;;;;5019796;28;20084;-75
2023/10/15 13:32:43;;;;;;;3.10;0.95;;;9.50;99.90;;;;;;5019967;28;20219;-75
2023/10/15 13:35:11;;;;;;;3.10;1.05;;;9.50;99.90;;;;;;5020471;28;20037;-75